Details From EGKB - Biggin Hill
To EGJA - Alderney
Flight Number -
Tags decoded
Created
Modified
Stats Distance 146 nm / 271 km
Max Altitude 0 ft / 0 m
Waypoints 8
Social Downloads 3
Likes 0
Share

Download

Looking for another format? Having issues loading an existing format? Contact us
Advertisement - Login to hide

Notes

Requested: EGKB OTSID GWC SAM NEDUL THRED ASPEN ORTAC AMOGA EGJA Unmatched points: OTSID

Route

EGKB GWC SAM NEDUL THRED ASPEN ORTAC EGJA

ID Type Via Altitude (ft/m) Position (lat/lon) Dist (leg/tot) Name
O EGKB APT - 0 / 0 51.32671 / 0.03288 - / 0 nm Biggin Hill
GWC VOR - 0 / 0 50.85528 / -0.75667 41 / 41 nm GOODWOOD VOR-DME
SAM VOR - 0 / 0 50.95528 / -1.34500 23 / 64 nm SOUTHAMPTON VOR-DME
NEDUL FIX - 0 / 0 50.66611 / -1.54778 18 / 83 nm
THRED FIX - 0 / 0 50.49861 / -1.66389 10 / 94 nm
ASPEN FIX - 0 / 0 50.29278 / -1.80556 13 / 107 nm
ORTAC FIX - 0 / 0 49.99917 / -2.00500 19 / 126 nm
O EGJA APT - 0 / 0 49.70656 / -2.21518 19 / 146 nm Alderney

Altitude Profile

Advertisement - Login to hide

EGKB

Details ICAO EGKB (BQH)
Name Biggin Hill
Region United Kingdom
Timezone Europe/London (UTC+1.0)
Stats Elevation 598 ft / 182 m (AMSL)
Location 51.331000° 0.032457°
Runways 1
Magnetic Variation 0.120° E

METAR

EGKB 081220Z 21024G37KT 9999 BKN014 13/11 Q1004

Decode

TAF

Not found

Departure Runways

ID Width Length Bearing (true/mag) Surface Threshold Overrun Markings Lighting
03 149 ft / 46 m 5,898 ft / 1,798 m 25.64° / 25.52° ASPHALT 801 ft / 244 m 0 ft / 0 m VISUAL EDGE THRESHOLD REIL-OMNI
21 149 ft / 46 m 5,898 ft / 1,798 m 205.65° / 205.53° ASPHALT 0 ft / 0 m 0 ft / 0 m UK-PREC-APP EDGE THRESHOLD CALVERT REIL-OMNI

EGJA

Details ICAO EGJA (ACI)
Name Alderney
Region United Kingdom
Timezone Unknown
Stats Elevation 290 ft / 88 m (AMSL)
Location 49.706600° -2.215170°
Runways 3
Magnetic Variation 0.479° W

METAR

EGJA 081220Z 20019KT CAVOK 15/11 Q1005

Decode

TAF

Not found

Destination Runways

ID Width Length Bearing (true/mag) Surface Threshold Overrun Markings Lighting
03 121 ft / 37 m 1,626 ft / 496 m 25.83° / 26.31° GRASS 0 ft / 0 m 0 ft / 0 m VISUAL
08 59 ft / 18 m 2,868 ft / 874 m 79.43° / 79.91° ASPHALT 0 ft / 0 m 0 ft / 0 m APP EDGE THRESHOLD MALS
13 121 ft / 37 m 2,399 ft / 731 m 133.37° / 133.85° GRASS 0 ft / 0 m 0 ft / 0 m VISUAL EDGE THRESHOLD
21 121 ft / 37 m 1,626 ft / 496 m 205.83° / 206.31° GRASS 0 ft / 0 m 0 ft / 0 m VISUAL
26 59 ft / 18 m 2,868 ft / 874 m 259.44° / 259.92° ASPHALT 0 ft / 0 m 0 ft / 0 m APP EDGE THRESHOLD MALS
31 121 ft / 37 m 2,399 ft / 731 m 313.38° / 313.86° GRASS 0 ft / 0 m 0 ft / 0 m VISUAL EDGE THRESHOLD

Popular Alternatives